• Join FlightAware (Why Join?)
  • Login
  • US Flag 
10:59AM EST


 

Airport Tracker/Info


-or-


 

Live Flight TrackerFlight Track Log ✈ EJA952 ✈ 21-Jul-2013 ✈ KCMH - KICT

Flight Track Log - Related Links

Times and Time Zones

All times are in EDT time to prevent confusion due to time zone crossing. See the EJA952 flight status page for this flight to view local times or setup timezone preferences in your user account.

Time Position Orientation Groundspeed Altitude Reporting Facility
EDT Latitude Longitude Course Direction KTS MPH feet Rate Location/Type
07:49PM 40.0019 -82.9125 274° West 178 205 1,200  Level Indianapolis Center
07:49PM 40.0047 -82.9603 274° West 210 242 3,500 3,600 Climbing Indianapolis Center
07:50PM 40.0089 -83.0486 274° West 235 270 7,600 3,240 Climbing Indianapolis Center
07:51PM 40.0131 -83.1536 273° West 282 325 10,300 2,820 Climbing Indianapolis Center
07:52PM 40.0189 -83.2864 273° West 311 358 13,400 2,340 Climbing Indianapolis Center
07:54PM 40.0203 -83.4131 271° West 350 403 15,100 1,440 Climbing Indianapolis Center
07:55PM 40.0022 -83.5478 260° West 378 435 16,400 1,320 Climbing Indianapolis Center
07:56PM 39.9833 -83.6903 260° West 400 460 17,900 1,620 Climbing Indianapolis Center
07:57PM 39.9633 -83.8336 260° West 403 464 19,800 2,340 Climbing Indianapolis Center
07:58PM 39.9417 -83.9936 260° West 382 440 22,700 2,580 Climbing Indianapolis Center
07:59PM 39.9242 -84.1225 260° West 364 419 25,200 2,220 Climbing Indianapolis Center
08:00PM 39.9061 -84.2481 259° West 353 406 27,400 1,920 Climbing Indianapolis Center
08:01PM 39.8894 -84.3764 260° West 355 409 29,200 1,560 Climbing Indianapolis Center
08:02PM 39.8700 -84.5067 259° West 365 420 30,700 1,500 Climbing Indianapolis Center
08:03PM 39.8517 -84.6425 260° West 377 434 32,300 1,500 Climbing Indianapolis Center
08:04PM 39.8314 -84.7808 259° West 385 443 33,800 1,140 Climbing Indianapolis Center
08:05PM 39.8117 -84.9142 259° West 396 456 34,700 1,500 Climbing Indianapolis Center
08:06PM 39.7864 -85.0886 259° West 409 471 36,900 1,680 Climbing Indianapolis Center
08:07PM 39.7656 -85.2328 259° West 407 468 38,200 1,080 Climbing Indianapolis Center
08:08PM 39.7436 -85.3808 259° West 417 480 39,200 840 Climbing Indianapolis Center
08:09PM 39.7200 -85.5331 259° West 428 493 40,000 360 Climbing Indianapolis Center
08:10PM 39.7006 -85.6914 261° West 443 510 40,000  Level Indianapolis Center
08:11PM 39.6814 -85.8519 261° West 450 518 40,000  Level Indianapolis Center
08:12PM 39.6617 -86.0106 261° West 445 512 40,000  Level Indianapolis Center
08:13PM 39.6367 -86.1992 260° West 437 503 40,000  Level Indianapolis Center
08:14PM 39.6172 -86.3600 261° West 440 506 40,000  Level Indianapolis Center
08:15PM 39.5983 -86.5147 261° West 433 498 40,000  Level Indianapolis Center
08:16PM 39.5786 -86.6681 261° West 430 495 40,000  Level Indianapolis Center
08:17PM 39.5589 -86.8192 260° West 428 493 40,000  Level Indianapolis Center
08:18PM 39.5397 -86.9714 261° West 429 494 40,000  Level Indianapolis Center
08:19PM 39.5194 -87.1225 260° West 428 493 40,000  Level Indianapolis Center
08:20PM 39.4989 -87.2742 260° West 429 494 40,000  Level Indianapolis Center
08:21PM 39.4786 -87.4250 260° West 428 493 40,000  Level Indianapolis Center
08:22PM 39.4533 -87.6064 260° West 428 493 40,000  Level Indianapolis Center
08:23PM 39.4319 -87.7569 260° West 429 494 40,000  Level Indianapolis Center
08:24PM 39.4108 -87.9078 260° West 427 491 40,000  Level Indianapolis Center
08:25PM 39.3894 -88.0581 260° West 428 493 40,000  Level Indianapolis Center
08:26PM 39.3681 -88.2097 260° West 430 495 40,000  Level Indianapolis Center
08:27PM 39.3453 -88.3736 260° West 428 493 40,000  Level Indianapolis Center
08:28PM 39.3272 -88.4953 259° West 428 493 40,000  Level Kansas City Center
08:29PM 39.2994 -88.6772 259° West 431 496 40,000 240 Level Kansas City Center
08:30PM 39.2781 -88.8314 260° West 434 499 40,500 600 Climbing Kansas City Center
08:31PM 39.2550 -88.9881 259° West 442 509 41,300 720 Climbing Kansas City Center
08:33PM 39.2314 -89.1442 259° West 445 512 42,100 720 Climbing Kansas City Center
08:34PM 39.2064 -89.3006 258° West 446 513 42,900 420 Climbing Kansas City Center
08:35PM 39.1825 -89.4578 259° West 448 516 43,000  Climbing Kansas City Center
08:36PM 39.1264 -89.6383 248° West 454 522 43,000  Level Kansas City Center
08:37PM 39.0608 -89.7750 238° Southwest 451 519 43,000  Level Kansas City Center
08:38PM 38.9936 -89.9219 240° Southwest 447 514 43,000  Level Kansas City Center
08:39PM 38.9344 -90.0439 238° Southwest 444 511 43,000  Level Kansas City Center
08:40PM 38.8700 -90.1889 240° Southwest 443 510 43,000  Level Kansas City Center
08:41PM 38.8086 -90.3264 240° Southwest 444 511 43,000  Level Kansas City Center
08:42PM 38.7472 -90.4653 240° Southwest 445 512 43,000  Level Kansas City Center
08:43PM 38.6658 -90.6272 237° Southwest 449 517 43,000  Level Kansas City Center
08:44PM 38.6139 -90.7453 241° Southwest 447 514 43,000  Level Kansas City Center
08:45PM 38.5553 -90.9203 247° West 439 505 43,000  Level Kansas City Center
08:46PM 38.5144 -91.0678 251° West 440 506 43,000  Level Kansas City Center
08:47PM 38.4725 -91.2175 250° West 446 513 43,000  Level Kansas City Center
08:48PM 38.4519 -91.3733 260° West 439 505 43,000  Level Kansas City Center
08:49PM 38.4414 -91.5267 265° West 447 514 43,000  Level Kansas City Center
08:50PM 38.4242 -91.7144 263° West 445 512 43,000  Level Kansas City Center
08:51PM 38.4092 -91.8711 263° West 444 511 43,000  Level Kansas City Center
08:52PM 38.3961 -92.0272 264° West 444 511 43,000  Level Kansas City Center
08:53PM 38.3803 -92.1833 263° West 446 513 43,000  Level Kansas City Center
08:54PM 38.3656 -92.3394 263° West 447 514 43,000  Level Kansas City Center
08:55PM 38.3522 -92.4958 264° West 447 514 43,000  Level Kansas City Center
08:56PM 38.3333 -92.6828 263° West 446 513 43,000  Level Kansas City Center
08:57PM 38.3169 -92.8375 262° West 445 512 43,000  Level Kansas City Center
08:58PM 38.3014 -92.9956 263° West 448 516 43,000  Level Kansas City Center
08:59PM 38.2847 -93.1528 262° West 450 518 43,000  Level Kansas City Center
09:00PM 38.2672 -93.3119 262° West 453 521 43,000  Level Kansas City Center
09:01PM 38.2503 -93.4700 262° West 453 521 43,000  Level Kansas City Center
09:02PM 38.2317 -93.6586 263° West 450 518 43,000  Level Kansas City Center
09:03PM 38.2139 -93.8164 262° West 450 518 43,000  Level Kansas City Center
09:04PM 38.1978 -93.9733 263° West 449 517 43,000  Level Kansas City Center
09:06PM 38.1803 -94.1331 262° West 447 514 43,000  Level Kansas City Center
09:07PM 38.1639 -94.2819 262° West 445 512 43,000  Level Kansas City Center
09:08PM 38.1439 -94.4556 262° West 443 510 43,000  Level Kansas City Center
09:09PM 38.1272 -94.6019 262° West 439 505 43,000 -180 Level Kansas City Center
09:10PM 38.1106 -94.7514 262° West 443 510 42,700 -960 Descending Kansas City Center
09:11PM 38.0903 -94.9228 262° West 440 506 41,100 -1,560 Descending Kansas City Center
09:12PM 38.0728 -95.0697 261° West 439 505 39,600 -1,560 Descending Kansas City Center
09:13PM 38.0517 -95.2406 261° West 439 505 38,000 -1,500 Descending Kansas City Center
09:14PM 38.0350 -95.3847 262° West 428 493 36,500 -1,620 Descending Kansas City Center
09:15PM 38.0156 -95.5492 262° West 427 491 34,800 -1,560 Descending Kansas City Center
09:16PM 37.9972 -95.6908 261° West 425 489 33,400 -1,440 Descending Kansas City Center
09:17PM 37.9806 -95.8339 262° West 428 493 31,900 -2,100 Descending Kansas City Center
09:18PM 37.9575 -96.0094 261° West 449 517 29,200 -2,460 Descending Kansas City Center
09:19PM 37.9383 -96.1614 261° West 469 540 26,900 -2,400 Descending Kansas City Center
09:20PM 37.9178 -96.3206 261° West 461 531 24,400 -2,640 Descending Kansas City Center
09:21PM 37.8969 -96.4750 260° West 447 514 21,600 -3,180 Descending Kansas City Center
09:22PM 37.8789 -96.6031 260° West 433 498 19,000 -3,420 Descending Kansas City Center
09:23PM 37.8586 -96.7522 260° West 429 494 15,900 -3,180 Descending Kansas City Center
09:24PM 37.8456 -96.8711 262° West 408 470 13,000 -3,240 Descending Kansas City Center
09:24PM 37.8425 -96.9378 267° West 390 449 11,400 -2,160 Descending Kansas City Center
09:25PM 37.8344 -97.0108 262° West 314 361 10,600 -1,680 Descending Kansas City Center
09:26PM 37.8258 -97.1128 264° West 271 312 8,700 -1,920 Descending Kansas City Center
09:27PM 37.8208 -97.2092 266° West 275 316 6,800 -1,920 Descending Kansas City Center
09:28PM 37.8147 -97.2975 265° West 252 290 4,900 -1,800 Descending Kansas City Center
09:29PM 37.7817 -97.3661 239° Southwest 204 235 3,000 -1,020 Descending Kansas City Center
09:30PM 37.7369 -97.3836 197° South 153 176 2,800 -480 Descending Kansas City Center
09:31PM 37.6861 -97.4064 200° South 155 178 1,900 -660 Descending Kansas City Center
09:32PM 37.6644 -97.4161 200° South 138 159 1,500 -720 Descending Kansas City Center
09:34PM 37.6499 -97.4331 142° Southeast  Level Estimated
09:41PM 37.6499 -97.4331 142° Southeast  Level Estimated
09:42PM 37.6499 -97.4331 142° Southeast  Level Estimated
09:43PM 37.6499 -97.4331 142° Southeast  Level Estimated
09:44PM 37.6499 -97.4331 142° Southeast  Level Estimated
09:45PM 37.6499 -97.4331 142° Southeast  Level Estimated
09:46PM 37.6499 -97.4331 142° Southeast  Level Estimated